Nearby METAR Reports

 

KTTN - Trenton, New Jersey, USA
Distance from station: WNW 11mi, 17km
Updated: Mon, 06-Feb-2023 4:53pm EST
Overcast
Overcast
 Wind from N
Wind: N 14 mph , 22 km/h
Temperature: 43°F , 6°C
Wind Chill: 36°F , 2°C
Dew Point: 28°F , -2°C
Humidity: 57%
Barometer: 30.08 inHg , 1018.6 hPa
Clouds: Overcast
Visibility: 10 miles , 16 km
Cloud details: Overcast 3900 ft
2023/02/06 21:53 KTTN 062153Z 35012KT 10SM OVC039 06/M02 A3008 RMK AO2 SLP181 T00611022
KWRI - Wrightst/Mcguire, New Jersey, USA
Distance from station: SSE 14mi, 22km
Updated: Mon, 06-Feb-2023 4:55pm EST
Overcast
Overcast
 Wind from NNW
Wind: NNW 16 mph , 26 km/h
Temperature: 45°F , 7°C
Wind Chill: 38°F , 3°C
Dew Point: 28°F , -2°C
Humidity: 53%
Barometer: 30.07 inHg , 1018.3 hPa
Clouds: Overcast
Visibility: 10 miles , 16 km
Cloud details: Overcast 3900 ft
2023/02/06 21:55 KWRI 062155Z AUTO 34014KT 10SM OVC039 07/M02 A3007 RMK AO2 PK WND 35026/10 SLP184 T00671020 $
 
KNEL - Lakehurst Nas, New Jersey, USA
Distance from station: SE 21mi, 34km
Updated: Mon, 06-Feb-2023 4:00pm EST

 Wind from NNW
Wind: NNW 10 mph , 17 km/h, Gust: 24 mph , 39 km/h
Temperature: 46°F , 8°C
Wind Chill: 41°F , 5°C
Dew Point: 30°F , -1°C
Humidity: 53%
Barometer: 30.02 inHg , 1016.6 hPa
2023/02/06 21:00 KNEL 062100Z AUTO 33009G21KT 280V360 08/M01 A3002 RMK AO2 SLP165 6//// T00831011 $
KPNE - Philadelphia/Ne, Pennsylvania, USA
Distance from station: WSW 22mi, 35km
Updated: Mon, 06-Feb-2023 4:54pm EST
Overcast
Overcast
 Wind from NNW
Wind: NNW 17 mph , 28 km/h, Gust: 22 mph , 35 km/h
Temperature: 45°F , 7°C
Wind Chill: 38°F , 3°C
Dew Point: 28°F , -2°C
Humidity: 53%
Barometer: 30.11 inHg , 1019.6 hPa
Clouds: Overcast
Visibility: 10 miles , 16 km
Cloud details: Overcast 3900 ft
2023/02/06 21:54 KPNE 062154Z 33015G19KT 10SM OVC039 07/M02 A3011 RMK AO2 SLP196 T00721022
 
KVAY - Mount Holly, New Jersey, USA
Distance from station: SSW 22mi, 35km
Updated: Mon, 06-Feb-2023 4:54pm EST
Overcast
Overcast
 Wind from NNW
Wind: NNW 12 mph , 19 km/h, Gust: 17 mph , 28 km/h
Temperature: 45°F , 7°C
Wind Chill: 39°F , 4°C
Dew Point: 28°F , -2°C
Humidity: 53%
Barometer: 30.09 inHg , 1019 hPa
Clouds: Overcast
Visibility: 10 miles , 16 km
Cloud details: Overcast 4000 ft
2023/02/06 21:54 KVAY 062154Z AUTO 33010G15KT 10SM OVC040 07/M02 A3009 RMK AO2 SLP190 T00721017
KMJX - Toms River, New Jersey, USA
Distance from station: SE 26mi, 42km
Updated: Fri, 20-Jan-2023 10:56am EST
NOT Current
Mostly cloudy
Mostly cloudy
 Wind from W
Wind: W 18 mph , 30 km/h, Gust: 25 mph , 41 km/h
Temperature: 48°F , 9°C
Wind Chill: 41°F , 5°C
Dew Point: 36°F , 2°C
Humidity: 62%
Barometer: 29.70 inHg , 1005.8 hPa
Clouds: Mostly cloudy
Visibility: 10 miles , 16 km
Cloud details: Mostly cloudy 4500 ft
2023/01/20 15:56 KMJX 201556Z AUTO 28016G22KT 10SM BKN045 09/02 A2970 RMK AO2 SLP062 T00940017 TSNO
 
KDYL - Doylestown, Pennsylvania, USA
Distance from station: WNW 27mi, 43km
Updated: Mon, 06-Feb-2023 4:54pm EST
Overcast
Overcast
 Wind from N
Wind: N 12 mph , 19 km/h, Gust: 26 mph , 43 km/h
Temperature: 43°F , 6°C
Wind Chill: 37°F , 3°C
Dew Point: 27°F , -3°C
Humidity: 53%
Barometer: 30.09 inHg , 1019 hPa
Clouds: Overcast
Visibility: 10 miles , 16 km
Cloud details: Overcast 3500 ft
2023/02/06 21:54 KDYL 062154Z AUTO 36010G23KT 10SM OVC035 06/M03 A3009 RMK AO2 SLP197 T00611028 $
KBLM - Belmar/Farmdale, New Jersey, USA
Distance from station: E 28mi, 45km
Updated: Mon, 06-Feb-2023 3:56pm EST
Overcast
Overcast
 Wind from NNW
Wind: NNW 20 mph , 31 km/h, Gust: 25 mph , 41 km/h
Barometer: 30.02 inHg , 1016.6 hPa
Clouds: Overcast
Visibility: 10 miles , 16 km
Cloud details: Overcast 4500 ft
2023/02/06 20:56 KBLM 062056Z AUTO 33017G22KT 10SM OVC045 A3002 RMK AO2 PK WND 32026/2003 SLPNO 53020 FZRANO $
 
KSMQ - Somerville, New Jersey, USA
Distance from station: N 28mi, 45km
Updated: Mon, 06-Feb-2023 4:53pm EST
Overcast
Overcast
 Wind from N
Wind: N 13 mph , 20 km/h, Gust: 22 mph , 35 km/h
Temperature: 45°F , 7°C
Wind Chill: 39°F , 4°C
Dew Point: 28°F , -2°C
Humidity: 53%
Barometer: 30.07 inHg , 1018.3 hPa
Clouds: Overcast
Visibility: 10 miles , 16 km
Cloud details: Overcast 4200 ft
2023/02/06 21:53 KSMQ 062153Z AUTO 36011G19KT 10SM OVC042 07/M02 A3007 RMK AO2 SLP186 T00721022
KLOM - Philly Wings F, Pennsylvania, USA
Distance from station: W 34mi, 54km
Updated: Mon, 06-Feb-2023 4:35pm EST
Overcast
Overcast
 Wind from NNW
Wind: NNW 8 mph , 13 km/h, Gust: 20 mph , 31 km/h
Temperature: 43°F , 6°C
Wind Chill: 38°F , 3°C
Dew Point: 30°F , -1°C
Humidity: 61%
Barometer: 30.10 inHg , 1019.3 hPa
Clouds: Overcast
Visibility: 10 miles , 16 km
Cloud details: Overcast 3600 ft
2023/02/06 21:35 KLOM 062135Z AUTO 33007G17KT 10SM OVC036 06/M01 A3010 RMK AO2 T00581013
 
KLDJ - Linden, New Jersey, USA
Distance from station: NE 35mi, 56km
Updated: Mon, 23-Jan-2023 11:55am EST
NOT Current
Drizzle, Overcast
Drizzle, Overcast
 Wind from WNW
Wind: WNW 10 mph , 17 km/h
Temperature: 39°F , 4°C
Wind Chill: 32°F , 0°C
Dew Point: 36°F , 2°C
Humidity: 87%
Barometer: 29.57 inHg , 1001.4 hPa
Summary: Drizzle
Clouds: Overcast
Visibility: 5 miles , 8 km
Cloud details: Partly cloudy 900 ft
Mostly cloudy 1400 ft
Overcast 1900 ft
2023/01/23 16:55 KLDJ 231655Z AUTO 30009KT 5SM DZ SCT009 BKN014 OVC019 04/02 A2957 RMK AO2 T00350020
KCKZ - Perkasie, Pennsylvania, USA
Distance from station: WNW 36mi, 58km
Updated: Mon, 06-Feb-2023 4:35pm EST
Overcast
Overcast
 Wind from N
Wind: N 13 mph , 20 km/h, Gust: 20 mph , 31 km/h
Temperature: 41°F , 5°C
Wind Chill: 34°F , 1°C
Dew Point: 28°F , -2°C
Humidity: 61%
Barometer: 30.10 inHg , 1019.3 hPa
Clouds: Overcast
Visibility: 10 miles , 16 km
Cloud details: Overcast 3000 ft
2023/02/06 21:35 KCKZ 062135Z AUTO 35011G17KT 310V010 10SM OVC030 05/M02 A3010 RMK AO2
 
KPHL - Philadelphia, Pennsylvania, USA
Distance from station: SW 40mi, 64km
Updated: Mon, 06-Feb-2023 4:54pm EST
Mostly cloudy
Mostly cloudy
 Wind from NNW
Wind: NNW 18 mph , 30 km/h, Gust: 25 mph , 41 km/h
Temperature: 45°F , 7°C
Wind Chill: 37°F , 3°C
Dew Point: 28°F , -2°C
Humidity: 53%
Barometer: 30.11 inHg , 1019.6 hPa
Clouds: Mostly cloudy
Visibility: 10 miles , 16 km
Cloud details: Mostly cloudy 3800 ft
2023/02/06 21:54 KPHL 062154Z 34016G22KT 10SM BKN038 07/M02 A3011 RMK AO2 PK WND 34026/2130 SLP196 T00721017 $
KEWR - Newark, New Jersey, USA
Distance from station: NE 41mi, 66km
Updated: Mon, 06-Feb-2023 4:51pm EST
Mostly cloudy
Mostly cloudy
 Wind from N
Wind: N 16 mph , 26 km/h
Temperature: 48°F , 9°C
Wind Chill: 42°F , 6°C
Dew Point: 28°F , -2°C
Humidity: 46%
Barometer: 30.07 inHg , 1018.3 hPa
Clouds: Mostly cloudy
Visibility: 10 miles , 16 km
Cloud details: Mostly cloudy 4300 ft
Mostly cloudy 25000 ft
2023/02/06 21:51 KEWR 062151Z 35014KT 10SM BKN043 BKN250 09/M02 A3007 RMK AO2 PK WND 34026/2058 SLP182 T00891022
 
KMMU - Morristown Muni, New Jersey, USA
Distance from station: NNE 41mi, 66km
Updated: Mon, 06-Feb-2023 4:45pm EST
Mostly cloudy
Mostly cloudy
 Wind from N
Wind: N 12 mph , 19 km/h, Gust: 22 mph , 35 km/h
Temperature: 45°F , 7°C
Wind Chill: 39°F , 4°C
Dew Point: 28°F , -2°C
Humidity: 53%
Barometer: 30.08 inHg , 1018.6 hPa
Clouds: Mostly cloudy
Visibility: 10 miles , 16 km
Cloud details: Mostly cloudy 4200 ft
2023/02/06 21:45 KMMU 062145Z 01010G19KT 10SM BKN042 07/M02 A3008
KUKT - Quakertown Arp, Pennsylvania, USA
Distance from station: WNW 42mi, 68km
Updated: Mon, 06-Feb-2023 4:55pm EST
Overcast
Overcast
 Wind from NW
Wind: NW 9 mph , 15 km/h
Temperature: 41°F , 5°C
Wind Chill: 35°F , 2°C
Dew Point: 30°F , -1°C
Humidity: 66%
Barometer: 30.12 inHg , 1020 hPa
Clouds: Overcast
Visibility: 10 miles , 16 km
Cloud details: Overcast 3000 ft
2023/02/06 21:55 KUKT 062155Z AUTO 32008KT 290V350 10SM OVC030 05/M01 A3012 RMK A01
 
KJRB - Manhattan/Dwntwn, New York, USA
Distance from station: NE 47mi, 75km
Updated: Mon, 06-Feb-2023 3:56pm EST
Overcast
Overcast
 Wind from E
Wind: E 8 mph , 13 km/h
Temperature: 48°F , 9°C
Wind Chill: 44°F , 7°C
Dew Point: 28°F , -2°C
Humidity: 46%
Barometer: 30.04 inHg , 1017.3 hPa
Clouds: Overcast
Visibility: 10 miles , 16 km
Cloud details: Overcast 4100 ft
2023/02/06 20:56 KJRB 062056Z AUTO 09007KT 050V150 10SM OVC041 09/M02 A3004 RMK AO2 SLP171 60001 T00891017 53018
KCDW - Caldwell, New Jersey, USA
Distance from station: NNE 50mi, 80km
Updated: Mon, 06-Feb-2023 4:53pm EST
Overcast
Overcast
 Wind from varies
Wind: varies 7 mph , 11 km/h
Temperature: 45°F , 7°C
Wind Chill: 41°F , 5°C
Dew Point: 27°F , -3°C
Humidity: 49%
Barometer: 30.09 inHg , 1019 hPa
Clouds: Overcast
Visibility: 10 miles , 16 km
Cloud details: Overcast 4100 ft
2023/02/06 21:53 KCDW 062153Z AUTO VRB06KT 10SM OVC041 07/M03 A3009 RMK AO2 SLP195 T00721033